Time;durP1;ratioP1;P1;durP2;ratioP2;P2;SDS_P1;SDS_P2;PMS_P1;PMS_P2;Temp;Humidity;BMP_temperature;BMP_pressure;BME280_temperature;BME280_humidity;BME280_pressure;Samples;Min_cycle;Max_cycle;Signal;HPM_P1;HPM_P2
2021/04/30 00:00:49;;;;;;;0.63;0.63;;;;;;;5.85;52.40;100217.44;6174099;23;20008;-77
2021/04/30 00:03:15;;;;;;;0.70;0.70;;;;;;;5.86;52.53;100229.94;6199605;23;20308;-78
2021/04/30 00:06:01;;;;;;;0.70;0.47;;;;;;;5.86;52.58;100238.91;6171156;23;20226;-78
2021/04/30 00:08:29;;;;;;;0.60;0.60;;;;;;;5.69;52.80;100219.00;6194786;23;20009;-76
2021/04/30 00:10:55;;;;;;;5.35;0.95;;;;;;;5.71;53.26;100244.81;6171788;23;20038;-77
2021/04/30 00:13:21;;;;;;;0.95;0.95;;;;;;;5.51;53.07;100219.97;6196035;23;20032;-76
2021/04/30 00:15:46;;;;;;;0.50;0.50;;;;;;;5.55;53.68;100232.00;6199161;23;20000;-77
2021/04/30 00:18:15;;;;;;;0.80;0.80;;;;;;;5.41;53.54;100221.38;6142362;23;20062;-77
2021/04/30 00:20:51;;;;;;;0.77;0.77;;;;;;;5.45;52.90;100231.75;6173201;23;20012;-78
2021/04/30 00:23:17;;;;;;;0.22;0.22;;;;;;;5.28;53.41;100205.34;6169871;23;20748;-77
2021/04/30 00:25:45;;;;;;;0.80;0.80;;;;;;;5.24;53.97;100215.84;6197914;23;20036;-76
2021/04/30 00:28:11;;;;;;;0.60;0.60;;;;;;;5.21;54.12;100218.19;6167918;23;20028;-79
2021/04/30 00:30:38;;;;;;;0.70;0.70;;;;;;;5.17;53.98;100198.03;6171382;23;20321;-77
2021/04/30 00:33:03;;;;;;;0.50;0.50;;;;;;;5.23;54.48;100214.19;6175686;23;20057;-76
2021/04/30 00:35:29;;;;;;;0.90;0.90;;;;;;;5.22;54.37;100219.84;6199167;23;20040;-77
2021/04/30 00:37:57;;;;;;;0.80;0.80;;;;;;;5.19;54.07;100218.44;6171221;23;20001;-77
2021/04/30 00:40:22;;;;;;;0.90;0.90;;;;;;;5.16;54.68;100213.47;6142087;23;20013;-76
2021/04/30 00:42:53;;;;;;;1.00;0.90;;;;;;;5.05;54.32;100207.00;6191744;23;20016;-76
2021/04/30 00:45:22;;;;;;;0.90;0.90;;;;;;;5.07;54.54;100206.78;6170617;23;20005;-78
2021/04/30 00:47:47;;;;;;;0.63;0.63;;;;;;;5.01;54.37;100205.81;6173083;23;20015;-76
2021/04/30 00:50:13;;;;;;;0.50;0.50;;;;;;;5.11;54.45;100220.66;6147499;23;20013;-80
2021/04/30 00:52:39;;;;;;;0.88;0.65;;;;;;;5.07;54.85;100223.84;6173434;23;20013;-79
2021/04/30 00:55:10;;;;;;;0.70;0.70;;;;;;;5.03;55.27;100219.13;6173516;23;20008;-78
2021/04/30 00:57:39;;;;;;;0.60;0.60;;;;;;;5.03;54.67;100219.94;6195641;23;20012;-77
2021/04/30 01:00:09;;;;;;;0.80;0.80;;;;;;;5.06;55.69;100224.91;6166726;23;20494;-76
2021/04/30 01:02:55;;;;;;;0.60;0.60;;;;;;;5.06;55.25;100230.31;6196327;23;20004;-76
2021/04/30 01:05:31;;;;;;;0.70;0.70;;;;;;;4.96;55.49;100213.81;6195039;23;20016;-78
2021/04/30 01:08:11;;;;;;;0.95;0.95;;;;;;;4.96;55.13;100210.28;6168190;23;20005;-78
2021/04/30 01:10:44;;;;;;;0.73;0.73;;;;;;;4.83;54.92;100200.50;6149140;23;20016;-78
2021/04/30 01:13:42;;;;;;;;;;;;;;;;;;;;;
2021/04/30 01:16:41;;;;;;;;;;;;;;;;;;;;;
2021/04/30 01:19:27;;;;;;;1.73;1.40;;;;;;;4.90;56.26;100233.72;6198205;23;20012;-76
2021/04/30 01:22:07;;;;;;;1.50;1.40;;;;;;;4.61;56.64;100184.78;6172978;23;20009;-76
2021/04/30 01:24:45;;;;;;;;;;;;;;;;;;;;;
2021/04/30 01:27:11;;;;;;;1.75;1.65;;;;;;;4.57;57.68;100208.00;6197196;23;20031;-78
2021/04/30 01:29:47;;;;;;;;;;;;;;;;;;;;;
2021/04/30 01:32:23;;;;;;;1.73;1.63;;;;;;;4.65;57.46;100231.19;6189159;23;20036;-76
2021/04/30 01:34:57;;;;;;;1.85;1.75;;;;;;;4.51;57.57;100209.75;6167855;23;20009;-76
2021/04/30 01:37:33;;;;;;;2.27;2.07;;;;;;;4.46;57.81;100214.19;6161443;23;20001;-77
2021/04/30 01:39:59;;;;;;;2.17;2.08;;;;;;;4.41;58.61;100216.75;6168591;23;20016;-77
2021/04/30 01:42:35;;;;;;;2.33;1.83;;;;;;;4.21;58.43;100189.97;6166166;23;20001;-76
2021/04/30 01:45:00;;;;;;;1.63;1.60;;;;;;;4.26;58.68;100204.47;6191706;23;20001;-77
2021/04/30 01:47:47;;;;;;;;;;;;;;;;;;;;;
2021/04/30 01:50:14;;;;;;;1.38;1.38;;;;;;;4.42;58.86;100237.38;6194149;23;20033;-75
2021/04/30 01:52:44;;;;;;;1.33;1.30;;;;;;;4.32;58.41;100222.50;6166629;23;20012;-77
2021/04/30 01:55:23;;;;;;;;;;;;;;;;;;;;;
2021/04/30 01:57:48;;;;;;;1.75;1.65;;;;;;;4.19;59.25;100198.31;6192557;23;20020;-75
2021/04/30 02:03:06;;;;;;;1.75;1.65;;;;;;;4.36;58.80;100220.97;6174053;23;20001;-76
2021/04/30 02:05:34;;;;;;;1.85;1.75;;;;;;;4.41;59.52;100223.00;6165466;23;19997;-76
2021/04/30 02:08:08;;;;;;;1.98;1.88;;;;;;;4.28;59.56;100213.19;6193601;23;19997;-74
2021/04/30 02:10:47;;;;;;;2.20;2.00;;;;;;;4.40;59.69;100220.53;6167720;23;20068;-76
2021/04/30 02:13:22;;;;;;;1.00;1.00;;;;;;;4.44;59.33;100219.00;6168689;23;20012;-76
2021/04/30 02:15:57;;;;;;;1.23;0.70;;;;;;;4.38;59.24;100218.06;6169551;23;20065;-75
2021/04/30 02:18:26;;;;;;;0.73;0.73;;;;;;;4.16;59.04;100182.53;6168307;23;20115;-77
2021/04/30 02:20:57;;;;;;;0.70;0.70;;;;;;;4.36;58.92;100209.31;6170453;23;20395;-75
2021/04/30 02:23:23;;;;;;;1.10;1.10;;;;;;;4.41;58.67;100216.75;6165900;23;20088;-76
2021/04/30 02:25:49;;;;;;;1.02;0.70;;;;;;;4.52;58.86;100234.94;6174265;23;20005;-76
2021/04/30 02:28:14;;;;;;;1.75;1.65;;;;;;;4.40;58.82;100209.72;6158372;23;20005;-76
2021/04/30 02:30:44;;;;;;;1.55;1.40;;;;;;;4.45;59.10;100220.66;6210418;23;20027;-75
2021/04/30 02:33:11;;;;;;;1.40;1.40;;;;;;;4.29;58.75;100197.75;6206440;23;20036;-75
2021/04/30 02:35:44;;;;;;;0.80;0.80;;;;;;;4.31;58.39;100207.31;6190450;23;20047;-75
2021/04/30 02:38:15;;;;;;;0.50;0.50;;;;;;;4.30;58.50;100200.25;6167232;23;20009;-75
2021/04/30 02:40:45;;;;;;;0.80;0.80;;;;;;;4.47;59.18;100227.50;6163664;23;20007;-75
2021/04/30 02:43:25;;;;;;;;;;;;;;;;;;;;;
2021/04/30 02:45:51;;;;;;;0.60;0.60;;;;;;;4.28;58.77;100202.38;6194313;23;20016;-75
2021/04/30 02:48:31;;;;;;;0.70;0.70;;;;;;;4.36;58.53;100215.56;6193192;23;20016;-75
2021/04/30 02:50:59;;;;;;;0.80;0.80;;;;;;;4.33;59.16;100210.59;6166563;23;20001;-74
2021/04/30 02:53:28;;;;;;;2.65;0.77;;;;;;;4.46;59.51;100228.53;6194355;23;20024;-76
2021/04/30 02:56:13;;;;;;;0.68;0.47;;;;;;;4.27;59.02;100206.13;6199087;23;20051;-78
2021/04/30 02:58:58;;;;;;;0.80;0.80;;;;;;;4.31;58.69;100201.91;6178321;23;20005;-78
2021/04/30 03:02:02;;;;;;;0.80;0.80;;;;;;;4.29;58.98;100195.91;6159185;23;20005;-77
2021/04/30 03:05:44;;;;;;;;;;;;;;;;;;;;;
2021/04/30 03:12:37;;;;;;;0.93;0.93;;;;;;;4.27;58.92;100181.75;6067876;23;20035;-78
2021/04/30 03:15:07;;;;;;;0.50;0.50;;;;;;;4.30;59.20;100175.88;5998672;23;20019;-78
2021/04/30 03:18:14;;;;;;;;;;;;;;;;;;;;;
2021/04/30 03:20:40;;;;;;;1.05;0.77;;;;;;;4.56;58.93;100214.47;6105307;23;20032;-77
2021/04/30 03:23:09;;;;;;;1.48;1.38;;;;;;;4.36;59.70;100180.34;6165173;23;19997;-77
2021/04/30 03:25:53;;;;;;;;;;;;;;;;;;;;;
2021/04/30 03:28:18;;;;;;;1.23;1.20;;;;;;;4.41;59.19;100181.56;6175063;23;20040;-77
2021/04/30 03:30:46;;;;;;;0.70;0.70;;;;;;;4.52;59.88;100195.13;6170726;23;20316;-78
2021/04/30 03:36:27;;;;;;;0.43;0.43;;;;;;;4.71;59.68;100216.72;6194801;23;20373;-77
2021/04/30 03:39:05;;;;;;;;;;;;;;;;;;;;;
2021/04/30 03:41:48;;;;;;;0.40;0.40;;;;;;;4.75;59.77;100190.00;6193106;23;20032;-76
2021/04/30 03:44:14;;;;;;;0.77;0.55;;;;;;;4.64;59.35;100178.91;6193495;23;19985;-78
2021/04/30 03:47:03;;;;;;;;;;;;;;;;;;;;;
2021/04/30 03:49:53;;;;;;;0.68;0.60;;;;;;;4.81;59.43;100183.66;6175717;23;20031;-77
2021/04/30 03:52:21;;;;;;;0.80;0.80;;;;;;;4.68;58.82;100158.41;6197339;23;20060;-76
2021/04/30 03:55:02;;;;;;;1.50;1.00;;;;;;;4.88;59.84;100189.78;6146465;23;20001;-75
2021/04/30 03:57:28;;;;;;;1.00;1.00;;;;;;;4.96;59.04;100202.16;6151512;23;20020;-76
2021/04/30 03:59:59;;;;;;;0.68;0.68;;;;;;;4.91;59.00;100192.03;6170614;23;20004;-76
2021/04/30 04:02:53;;;;;;;1.15;1.05;;;;;;;4.88;59.12;100173.53;6194297;23;20001;-76
2021/04/30 04:05:26;;;;;;;0.60;0.60;;;;;;;4.81;59.43;100167.41;6189285;23;20004;-77
2021/04/30 04:08:07;;;;;;;;;;;;;;;;;;;;;
2021/04/30 04:10:49;;;;;;;0.50;0.50;;;;;;;4.91;59.37;100173.06;6169749;23;20035;-78
2021/04/30 04:13:22;;;;;;;0.90;0.90;;;;;;;5.05;58.96;100193.47;6162523;23;20001;-73
2021/04/30 04:15:49;;;;;;;1.33;1.33;;;;;;;5.07;59.24;100194.03;6153967;23;20077;-72
2021/04/30 04:18:15;;;;;;;1.40;1.40;;;;;;;5.15;59.49;100208.28;6137018;23;20005;-72
2021/04/30 04:20:41;;;;;;;1.85;1.75;;;;;;;5.17;59.63;100214.28;6163150;23;20062;-72
2021/04/30 04:23:33;;;;;;;1.17;1.08;;;;;;;5.14;59.22;100206.63;6184024;23;20076;-76
2021/04/30 04:25:59;;;;;;;0.68;0.68;;;;;;;5.19;60.00;100214.91;6163109;23;20091;-75
2021/04/30 04:28:49;;;;;;;1.13;1.13;;;;;;;5.10;59.60;100203.59;6159017;23;20412;-76
2021/04/30 04:31:14;;;;;;;0.95;0.95;;;;;;;5.06;59.81;100195.09;6163527;23;20420;-75
2021/04/30 04:33:40;;;;;;;0.93;0.93;;;;;;;5.19;59.64;100217.63;6163718;23;20001;-75
2021/04/30 04:36:08;;;;;;;1.00;1.00;;;;;;;5.22;59.02;100222.56;6190549;23;20009;-74
2021/04/30 04:38:33;;;;;;;1.10;1.10;;;;;;;5.15;59.33;100205.59;6190469;23;20012;-74
2021/04/30 04:40:59;;;;;;;1.13;1.13;;;;;;;5.25;59.57;100224.81;6160955;23;20013;-74
2021/04/30 04:43:26;;;;;;;1.17;1.17;;;;;;;5.26;59.59;100226.47;6188784;23;19993;-74
2021/04/30 04:45:54;;;;;;;1.67;1.58;;;;;;;5.22;60.00;100225.28;6134609;23;20020;-75
2021/04/30 04:48:24;;;;;;;1.35;1.35;;;;;;;5.28;59.68;100229.75;6193842;23;20028;-75
2021/04/30 04:51:07;;;;;;;1.17;1.17;;;;;;;5.16;59.87;100197.22;6161734;23;20009;-76
2021/04/30 04:53:42;;;;;;;;;;;;;;;;;;;;;
2021/04/30 04:56:18;;;;;;;;;;;;;;;;;;;;;
2021/04/30 04:59:21;;;;;;;;;;;;;;;;;;;;;
2021/04/30 05:01:59;;;;;;;;;;;;;;;;;;;;;
2021/04/30 05:04:25;;;;;;;1.30;1.30;;;;;;;5.31;59.54;100220.31;6173581;23;20029;-77
2021/04/30 05:06:56;;;;;;;2.33;2.13;;;;;;;5.30;59.55;100219.50;6197030;23;19997;-74
2021/04/30 05:09:22;;;;;;;2.28;2.15;;;;;;;5.30;59.90;100224.09;6143565;23;20019;-75
2021/04/30 05:11:47;;;;;;;1.95;1.85;;;;;;;5.40;60.03;100236.00;6121918;23;20020;-75
2021/04/30 05:14:13;;;;;;;1.65;1.55;;;;;;;5.30;59.85;100219.50;6191902;23;20037;-75
2021/04/30 05:16:41;;;;;;;1.42;1.38;;;;;;;5.29;59.73;100214.31;6194330;23;20005;-75
2021/04/30 05:19:12;;;;;;;1.85;1.67;;;;;;;5.19;59.83;100194.03;6171100;23;20024;-74
2021/04/30 05:22:49;;;;;;;1.10;1.10;;;;;;;5.39;60.01;100228.94;6169890;23;20019;-76
2021/04/30 05:25:13;;;;;;;1.02;1.02;;;;;;;5.21;59.75;100199.22;6195558;23;20517;-75
2021/04/30 05:27:50;;;;;;;;;;;;;;;;;;;;;
2021/04/30 05:30:19;;;;;;;1.27;1.27;;;;;;;5.32;59.96;100217.38;6192441;23;20050;-77
2021/04/30 05:32:55;;;;;;;2.15;2.05;;;;;;;5.50;60.56;100246.25;6171249;23;20028;-76
2021/04/30 05:35:25;;;;;;;;;;;;;;;5.57;59.76;100240.72;6163910;23;20088;-77
2021/04/30 05:37:51;;;;;;;1.80;1.70;;;;;;;5.53;59.71;100236.81;6195617;23;19940;-76
2021/04/30 05:40:16;;;;;;;1.08;1.08;;;;;;;5.52;60.22;100232.44;6165636;23;20005;-76
2021/04/30 05:42:42;;;;;;;1.92;1.83;;;;;;;5.60;60.13;100245.66;6192334;23;20012;-77
2021/04/30 05:45:19;;;;;;;3.28;2.88;;;;;;;5.57;59.46;100240.72;6171249;23;20008;-77
2021/04/30 05:47:47;;;;;;;2.13;2.03;;;;;;;5.56;60.20;100244.47;6169445;23;20009;-76
2021/04/30 05:50:15;;;;;;;2.78;2.58;;;;;;;5.71;60.14;100262.97;6144169;23;20017;-76
2021/04/30 05:52:49;;;;;;;3.55;2.67;;;;;;;5.58;59.54;100236.94;6191983;23;20032;-77
2021/04/30 05:55:15;;;;;;;2.50;2.40;;;;;;;5.56;59.63;100234.47;6146007;23;20020;-76
2021/04/30 05:57:48;;;;;;;2.58;2.47;;;;;;;5.64;60.05;100246.84;6143311;23;20008;-77
2021/04/30 06:00:14;;;;;;;2.47;2.38;;;;;;;5.71;60.00;100263.81;6143241;23;20008;-77
2021/04/30 06:02:40;;;;;;;1.70;1.60;;;;;;;5.64;59.83;100246.03;6193635;23;20001;-73
2021/04/30 06:05:07;;;;;;;1.63;1.58;;;;;;;5.58;59.96;100232.34;6190075;23;20081;-75
2021/04/30 06:07:35;;;;;;;1.92;1.83;;;;;;;5.75;59.82;100256.00;6192673;23;20016;-73
2021/04/30 06:10:04;;;;;;;1.77;1.70;;;;;;;5.67;59.95;100235.50;6164094;23;20045;-72
2021/04/30 06:12:31;;;;;;;1.67;1.58;;;;;;;5.93;59.99;100268.63;6180674;23;20007;-76
2021/04/30 06:15:09;;;;;;;;;;;;;;;;;;;;;
2021/04/30 06:17:34;;;;;;;2.28;1.95;;;;;;;6.07;59.63;100277.34;6192576;23;20047;-76
2021/04/30 06:20:05;;;;;;;4.10;2.17;;;;;;;6.07;59.84;100264.59;6191976;23;20005;-74
2021/04/30 06:22:38;;;;;;;2.05;1.95;;;;;;;6.13;59.90;100259.28;6191336;23;20007;-75
2021/04/30 06:25:04;;;;;;;2.75;2.35;;;;;;;6.13;59.59;100253.84;6192320;23;20001;-75
2021/04/30 06:27:40;;;;;;;;;;;;;;;;;;;;;
2021/04/30 06:30:09;;;;;;;1.42;1.42;;;;;;;6.20;59.90;100238.25;6190604;23;20020;-75
2021/04/30 06:32:38;;;;;;;1.77;1.73;;;;;;;6.51;59.58;100285.00;6164125;23;20011;-75
2021/04/30 06:35:30;;;;;;;;;;;;;;;;;;;;;
2021/04/30 06:38:06;;;;;;;;;;;;;;;;;;;;;
2021/04/30 06:40:32;;;;;;;2.35;2.25;;;;;;;6.70;59.34;100269.31;6191101;23;20043;-75
2021/04/30 06:45:56;;;;;;;1.55;1.55;;;;;;;7.18;59.27;100291.63;6175934;23;20024;-78
2021/04/30 06:48:24;;;;;;;1.90;1.80;;;;;;;7.30;59.06;100289.66;6146145;23;20017;-77
2021/04/30 06:51:13;;;;;;;2.15;1.95;;;;;;;7.47;59.24;100285.03;6166470;23;20320;-78
2021/04/30 06:53:43;;;;;;;1.10;1.10;;;;;;;7.77;59.10;100294.72;6167349;23;20005;-77
2021/04/30 06:56:47;;;;;;;3.78;1.70;;;;;;;7.99;57.74;100285.78;6191773;23;19997;-76
2021/04/30 06:59:53;;;;;;;1.60;1.50;;;;;;;8.18;58.58;100278.91;6150700;23;20008;-79
2021/04/30 07:04:13;;;;;;;;;;;;;;;;;;;;;
2021/04/30 07:10:30;;;;;;;2.17;2.08;;;;;;;9.24;55.79;100290.41;5993072;23;20012;-77
2021/04/30 07:13:40;;;;;;;;;;;;;;;;;;;;;
2021/04/30 07:23:35;;;;;;;2.25;1.77;;;;;;;9.83;54.73;100301.44;5852270;24;20052;-78
2021/04/30 07:50:07;;;;;;;1.02;1.02;;;;;;;11.39;52.62;100320.78;6175612;22;20027;31
2021/04/30 07:53:27;;;;;;;1.27;1.17;;;;;;;11.73;52.88;100325.72;6160581;23;20080;-80
2021/04/30 08:00:36;;;;;;;;;;;;;;;;;;;;;
2021/04/30 08:11:01;;;;;;;0.85;0.85;;;;;;;13.27;50.36;100319.53;5620975;25;20044;-77
2021/04/30 08:14:06;;;;;;;;;;;;;;;;;;;;;
2021/04/30 08:17:04;;;;;;;0.82;0.60;;;;;;;13.42;48.57;100302.16;5681252;25;19922;-80
2021/04/30 08:20:35;;;;;;;0.82;0.82;;;;;;;13.35;48.59;100286.00;5708924;25;20148;-78
2021/04/30 08:23:15;;;;;;;;;;;;;;;;;;;;;
2021/04/30 08:26:23;;;;;;;;;;;;;;;;;;;;;
2021/04/30 08:29:37;;;;;;;1.15;0.85;;;;;;;13.73;46.75;100293.63;5941558;23;20450;-77
2021/04/30 08:35:37;;;;;;;;;;;;;;;;;;;;;
2021/04/30 08:38:12;;;;;;;2.15;0.80;;;;;;;14.36;46.27;100327.59;6025548;23;20482;-79
2021/04/30 08:40:43;;;;;;;1.17;0.87;;;;;;;14.39;45.98;100314.03;6047097;23;20763;-77
2021/04/30 08:43:40;;;;;;;1.25;1.15;;;;;;;14.45;45.12;100298.28;6132384;23;20021;-79
2021/04/30 08:46:05;;;;;;;4.00;0.60;;;;;;;14.73;45.35;100299.31;6124818;23;20014;-77
2021/04/30 08:48:33;;;;;;;1.20;0.60;;;;;;;15.01;44.64;100294.78;6128521;23;20103;-76
2021/04/30 08:51:03;;;;;;;1.25;0.60;;;;;;;15.40;43.66;100325.84;6150338;23;20020;-77
2021/04/30 08:53:42;;;;;;;0.65;0.50;;;;;;;15.58;43.50;100298.53;6192894;23;20008;-77
2021/04/30 08:56:08;;;;;;;1.30;0.68;;;;;;;15.74;42.52;100302.66;6195826;23;20001;-77
2021/04/30 08:59:08;;;;;;;0.30;0.30;;;;;;;16.06;41.63;100306.50;6137271;23;20067;-75
2021/04/30 09:01:37;;;;;;;2.05;0.65;;;;;;;16.30;41.26;100327.56;6171558;23;20007;-75
2021/04/30 09:04:42;;;;;;;;;;;;;;;;;;;;;
2021/04/30 09:08:35;;;;;;;0.40;0.40;;;;;;;16.41;39.65;100301.38;6166597;23;20360;-76
2021/04/30 09:14:35;;;;;;;0.40;0.40;;;;;;;16.90;39.63;100302.53;6127386;23;20018;-76
2021/04/30 09:23:54;;;;;;;0.52;0.52;;;;;;;18.49;36.98;100316.13;6071433;23;20039;-75
2021/04/30 09:26:55;;;;;;;0.95;0.60;;;;;;;19.49;36.83;100327.44;6070398;23;20011;-79
2021/04/30 09:29:31;;;;;;;;;;;;;;;;;;;;;
2021/04/30 09:32:17;;;;;;;0.57;0.57;;;;;;;21.45;35.30;100313.47;6089736;23;20029;-74
2021/04/30 09:34:44;;;;;;;1.52;0.60;;;;;;;22.35;33.88;100326.91;6142920;23;20075;-77
2021/04/30 09:37:32;;;;;;;;;;;;;;;;;;;;;
2021/04/30 09:40:03;;;;;;;0.50;0.40;;;;;;;24.38;32.65;100321.06;6166429;23;20029;-73
2021/04/30 09:45:35;;;;;;;;;;;;;;;;;;;;;
2021/04/30 09:51:03;;;;;;;0.35;0.20;;;;;;;28.21;28.38;100316.88;6179268;23;20028;-74
2021/04/30 09:53:38;;;;;;;0.43;0.30;;;;;;;29.28;26.58;100324.38;6164873;23;20076;-73
2021/04/30 09:56:42;;;;;;;;;;;;;;;;;;;;;
2021/04/30 09:59:25;;;;;;;0.28;0.20;;;;;;;29.08;22.50;100316.22;6143682;23;20040;-78
2021/04/30 10:02:24;;;;;;;0.38;0.38;;;;;;;27.97;21.75;100310.66;6169195;23;20479;-76
2021/04/30 10:05:15;;;;;;;0.63;0.40;;;;;;;26.67;22.78;100329.94;6156610;23;20009;-79
2021/04/30 10:07:53;;;;;;;0.50;0.40;;;;;;;25.32;23.42;100312.00;6188120;23;20005;-77
2021/04/30 10:10:22;;;;;;;0.15;0.10;;;;;;;24.46;24.42;100316.47;6167643;23;20083;-77
2021/04/30 10:13:08;;;;;;;0.45;0.45;;;;;;;23.68;23.96;100319.72;6169428;23;20009;-76
2021/04/30 10:15:42;;;;;;;0.30;0.30;;;;;;;22.80;24.19;100322.34;6169423;23;20028;-80
2021/04/30 10:18:30;;;;;;;1.55;0.35;;;;;;;22.09;24.92;100314.13;6171472;23;20015;-77
2021/04/30 10:21:03;;;;;;;3.95;0.88;;;;;;;21.37;25.41;100297.69;6147135;23;20009;-78
2021/04/30 10:27:20;;;;;;;0.32;0.32;;;;;;;20.04;27.64;100296.13;6106094;23;20417;-79
2021/04/30 10:30:05;;;;;;;0.50;0.50;;;;;;;19.58;28.47;100308.84;6110491;23;20034;-78
2021/04/30 10:33:07;;;;;;;0.60;0.52;;;;;;;18.97;28.58;100308.91;6105596;23;20003;-78
2021/04/30 10:35:56;;;;;;;1.05;0.95;;;;;;;18.27;29.41;100297.69;6100357;23;20065;-77
2021/04/30 10:38:41;;;;;;;;;;;;;;;;;;;;;
2021/04/30 10:41:10;;;;;;;;;;;;;;;17.25;30.01;100300.03;6202080;23;20467;-79
2021/04/30 10:43:52;;;;;;;;;;;;;;;;;;;;;
2021/04/30 10:46:32;;;;;;;;;;;;;;;;;;;;;
2021/04/30 10:49:37;;;;;;;;;;;;;;;;;;;;;
2021/04/30 10:52:16;;;;;;;;;;;;;;;;;;;;;
2021/04/30 10:55:10;;;;;;;0.50;0.50;;;;;;;15.00;32.33;100270.31;6202437;23;20017;-81
2021/04/30 11:05:11;;;;;;;0.20;0.20;;;;;;;14.78;34.02;100301.19;6107303;23;20342;-79
2021/04/30 11:07:56;;;;;;;1.23;0.10;;;;;;;14.65;33.17;100270.53;6109279;23;20006;-79
2021/04/30 11:10:31;;;;;;;1.95;1.85;;;;;;;14.92;33.36;100296.59;6198296;23;20060;-81
2021/04/30 11:30:41;;;;;;;3.13;2.90;;;;;;;15.49;34.39;100307.50;6015149;23;20041;-73
2021/04/30 11:33:27;;;;;;;1.73;1.63;;;;;;;15.84;34.52;100310.78;6007021;23;20011;-75
2021/04/30 11:40:09;;;;;;;;;;;;;;;;;;;;;
2021/04/30 11:46:24;;;;;;;0.57;0.57;;;;;;;17.89;32.91;100292.63;5981022;23;20063;-77
2021/04/30 11:49:11;;;;;;;;;;;;;;;;;;;;;
2021/04/30 11:51:47;;;;;;;0.40;0.40;;;;;;;19.47;32.18;100297.25;6100377;23;20049;-76
2021/04/30 11:54:55;;;;;;;;;;;;;;;;;;;;;
2021/04/30 11:57:23;;;;;;;0.43;0.30;;;;;;;21.60;30.92;100300.91;6142353;23;20028;-77
2021/04/30 12:00:20;;;;;;;0.30;0.30;;;;;;;23.43;30.79;100307.84;6136059;23;20069;-77
2021/04/30 12:02:59;;;;;;;;;;;;;;;25.06;27.53;100323.81;6143770;23;20006;-77
2021/04/30 12:05:44;;;;;;;;;;;;;;;;;;;;;
2021/04/30 12:15:37;;;;;;;0.30;0.20;;;;;;;32.65;22.80;100328.59;6070161;23;20104;-78
2021/04/30 12:18:32;;;;;;;0.10;0.10;;;;;;;34.66;20.94;100315.63;6163141;23;20001;-78
2021/04/30 12:21:53;;;;;;;;;;;;;;;;;;;;;
2021/04/30 12:24:21;;;;;;;0.35;0.17;;;;;;;37.70;16.56;100325.44;6140337;23;20024;-77
2021/04/30 12:29:52;;;;;;;0.13;0.10;;;;;;;39.57;15.20;100326.63;6133874;23;20040;-77
2021/04/30 12:32:56;;;;;;;0.20;0.10;;;;;;;40.41;14.01;100318.28;6157846;23;20016;-77
2021/04/30 12:35:25;;;;;;;0.22;0.15;;;;;;;39.23;13.36;100301.81;6099273;23;20017;-76
2021/04/30 12:37:54;;;;;;;0.10;0.10;;;;;;;37.54;13.78;100308.47;6132983;23;20010;-77
2021/04/30 12:41:05;;;;;;;;;;;;;;;;;;;;;
2021/04/30 12:43:36;;;;;;;0.20;0.15;;;;;;;32.66;13.89;100282.09;6158612;23;20024;-78
2021/04/30 12:46:41;;;;;;;0.50;0.30;;;;;;;30.19;14.81;100285.91;6155878;23;20328;-77
2021/04/30 12:49:36;;;;;;;;;;;;;;;;;;;;;
2021/04/30 12:52:06;;;;;;;0.20;0.20;;;;;;;27.25;17.67;100264.97;6056950;23;20059;-77
2021/04/30 12:55:00;;;;;;;0.52;0.52;;;;;;;26.56;17.57;100274.50;6169525;23;20080;-78
2021/04/30 12:57:52;;;;;;;0.50;0.50;;;;;;;25.32;19.52;100269.19;6181670;23;20035;-77
2021/04/30 13:00:20;;;;;;;0.60;0.60;;;;;;;24.48;19.83;100265.81;6173028;23;20001;-80
2021/04/30 13:03:35;;;;;;;;;;;;;;;;;;;;;
2021/04/30 13:14:55;;;;;;;1.05;0.50;;;;;;;23.46;21.28;100284.00;5904746;24;20098;-79
2021/04/30 13:17:45;;;;;;;;;;;;;;;;;;;;;
2021/04/30 13:42:09;;;;;;;;;;;;;;;;;;;;;
2021/04/30 13:44:57;;;;;;;0.47;0.47;;;;;;;26.57;18.88;100236.84;5904333;24;20128;-77
2021/04/30 13:47:43;;;;;;;;;;;;;;;;;;;;;
2021/04/30 13:50:19;;;;;;;0.80;0.30;;;;;;;26.35;18.96;100248.97;5971370;23;20122;-77
2021/04/30 13:52:45;;;;;;;0.28;0.20;;;;;;;26.20;18.77;100229.13;6047791;23;20023;-78
2021/04/30 13:55:13;;;;;;;0.10;0.10;;;;;;;26.38;19.57;100239.78;6027713;23;20028;-77
2021/04/30 13:58:00;;;;;;;0.35;0.35;;;;;;;28.12;19.34;100254.56;6160786;23;20035;-76
2021/04/30 14:00:50;;;;;;;0.98;0.40;;;;;;;29.52;17.72;100243.19;6167098;23;20013;-78
2021/04/30 14:03:34;;;;;;;1.70;0.40;;;;;;;30.22;17.33;100242.78;6146466;23;20013;-78
2021/04/30 14:06:32;;;;;;;;;;;;;;;;;;;;;
2021/04/30 14:09:15;;;;;;;0.20;0.20;;;;;;;33.67;17.04;100241.09;6195657;23;20036;-78
2021/04/30 14:11:49;;;;;;;0.30;0.30;;;;;;;35.52;14.69;100245.63;6170498;23;20067;-78
2021/04/30 14:14:42;;;;;;;;;;;;;;;;;;;;;
2021/04/30 14:17:52;;;;;;;0.60;0.40;;;;;;;36.21;12.62;100256.06;6194338;23;20021;-78
2021/04/30 14:20:26;;;;;;;0.43;0.43;;;;;;;33.67;12.71;100241.09;6196734;23;20005;-78
2021/04/30 14:23:09;;;;;;;;;;;;;;;;;;;;;
2021/04/30 14:25:55;;;;;;;0.60;0.57;;;;;;;29.14;14.92;100228.59;6192993;23;19928;-76
2021/04/30 14:28:53;;;;;;;;;;;;;;;;;;;;;
2021/04/30 14:31:39;;;;;;;0.60;0.60;;;;;;;29.31;17.41;100247.56;6193688;23;20035;-79
2021/04/30 14:34:26;;;;;;;0.40;0.40;;;;;;;30.85;16.37;100239.41;6190667;23;20097;-75
2021/04/30 14:37:13;;;;;;;0.30;0.30;;;;;;;31.62;15.04;100249.91;6142890;23;20009;-76
2021/04/30 14:39:50;;;;;;;0.47;0.30;;;;;;;31.71;14.92;100253.06;6165921;23;20016;-78
2021/04/30 14:42:23;;;;;;;0.45;0.30;;;;;;;31.15;15.13;100219.13;6166325;23;20015;-77
2021/04/30 14:45:07;;;;;;;;;;;;;;;;;;;;;
2021/04/30 14:48:06;;;;;;;0.95;0.60;;;;;;;27.74;16.41;100215.31;6193363;23;20041;-77
2021/04/30 14:50:54;;;;;;;;;;;;;;;;;;;;;
2021/04/30 14:54:00;;;;;;;0.32;0.30;;;;;;;26.57;18.95;100234.03;6175727;23;20045;-79
2021/04/30 14:56:51;;;;;;;0.43;0.30;;;;;;;28.60;18.51;100228.34;6166541;23;20016;-80
2021/04/30 15:03:19;;;;;;;0.20;0.20;;;;;;;31.98;15.99;100238.28;6176603;23;20028;-78
2021/04/30 15:06:10;;;;;;;0.30;0.30;;;;;;;31.76;15.72;100238.50;6197070;23;20008;-81
2021/04/30 15:08:43;;;;;;;0.20;0.20;;;;;;;31.12;15.29;100234.06;6164594;23;20008;-77
2021/04/30 15:11:23;;;;;;;;;;;;;;;;;;;;;
2021/04/30 15:14:05;;;;;;;0.35;0.20;;;;;;;29.06;15.97;100217.31;6193588;23;20032;-77
2021/04/30 15:16:41;;;;;;;0.10;0.10;;;;;;;28.23;16.32;100232.97;6194592;23;20007;-77
2021/04/30 15:19:09;;;;;;;0.20;0.20;;;;;;;28.21;17.75;100224.09;6196172;23;20005;-78
2021/04/30 15:21:45;;;;;;;;;;;;;;;;;;;;;
2021/04/30 15:24:51;;;;;;;;;;;;;;;;;;;;;
2021/04/30 15:27:06;;;;;;;0.10;0.10;;;;;;;26.98;17.21;100228.59;6205570;23;20044;-78
2021/04/30 15:30:00;;;;;;;0.50;0.50;;;;;;;25.63;17.83;100233.75;6210673;23;20009;-79
2021/04/30 15:32:45;;;;;;;0.43;0.43;;;;;;;24.12;19.00;100237.81;6176530;23;19993;-78
2021/04/30 15:36:07;;;;;;;0.25;0.25;;;;;;;22.82;20.06;100217.69;6209922;23;19997;-79
2021/04/30 15:38:33;;;;;;;0.47;0.22;;;;;;;21.79;21.04;100216.88;6184552;23;20028;-79
2021/04/30 15:41:02;;;;;;;0.57;0.55;;;;;;;21.07;22.16;100222.75;6176127;23;20009;-78
2021/04/30 15:43:35;;;;;;;0.60;0.60;;;;;;;20.28;22.05;100244.75;6174248;23;19997;-77
2021/04/30 15:46:08;;;;;;;2.33;1.70;;;;;;;19.13;26.05;100239.94;6169876;23;20095;-78
2021/04/30 15:48:34;;;;;;;2.70;2.50;;;;;;;17.86;28.19;100226.84;6146149;23;20338;-76
2021/04/30 15:51:03;;;;;;;1.75;1.65;;;;;;;16.88;30.15;100244.03;6168212;23;20052;-77
2021/04/30 15:53:39;;;;;;;;;;;;;;;;;;;;;
2021/04/30 15:56:32;;;;;;;;;;;;;;;;;;;;;
2021/04/30 15:59:08;;;;;;;;;;;;;;;;;;;;;
2021/04/30 16:01:34;;;;;;;1.80;1.73;;;;;;;12.72;38.63;100251.06;6196622;23;20032;-77
2021/04/30 16:04:22;;;;;;;1.85;1.75;;;;;;;12.32;39.13;100270.19;6197514;23;20028;-77
2021/04/30 16:06:55;;;;;;;2.00;1.90;;;;;;;11.84;40.84;100245.13;6167766;23;20005;-78
2021/04/30 16:09:31;;;;;;;;;;;;;;;;;;;;;
2021/04/30 16:11:59;;;;;;;2.35;2.25;;;;;;;11.23;43.46;100246.91;6194727;23;20030;-77
2021/04/30 16:14:47;;;;;;;2.38;2.28;;;;;;;11.09;44.05;100276.72;6194757;23;20001;-78
2021/04/30 16:17:15;;;;;;;1.77;1.67;;;;;;;10.73;44.89;100273.13;6168952;23;20020;-79
2021/04/30 16:19:49;;;;;;;2.80;2.42;;;;;;;10.45;45.43;100253.38;6190459;23;20009;-75
2021/04/30 16:22:34;;;;;;;;;;;;;;;;;;;;;
2021/04/30 16:25:06;;;;;;;4.85;2.30;;;;;;;10.27;46.48;100252.75;6198853;23;20017;-78
2021/04/30 16:27:34;;;;;;;3.13;2.90;;;;;;;10.36;48.55;100280.41;6195895;23;20008;-80
2021/04/30 16:30:09;;;;;;;2.97;2.78;;;;;;;10.16;48.66;100270.19;6169958;23;20004;-79
2021/04/30 16:32:42;;;;;;;2.60;2.50;;;;;;;10.08;48.11;100246.13;6194243;23;20001;-79